Williamson, Illinois
Current Conditions -  °F | °C
As of 7:35 PM on Tuesday 21 Oct 2014 (Local Time) from K3LF Reporting Station
Clear Clear  
Wind Chill: 50°   Ceiling: Unl
Heat Index: 50°   Visibility: 10mi
Dew Point: 39°   Wind: 6mph
Humidity: 65%   Direction: 40°NE
Pressure: 30.17"   Gusts: NA
Location:  39.0218°N, 89.7604°W
Report Text: K3LF 220035Z AUTO 04005KT 10SM CLR 10/04 A3017 RMK AO2 T01020038
Loading
Personal Weather Stations






























Interactive Weather Map
Tropical Storm Tracking
New forecast layout! Learn more

10-Day Weather Forecast

Advertisements
Track Severe Weather on mobile